Terminal Aerodrome Forecast
Issued by NWS

Home | Current Version | Previous Version | Text Only | Print | Product List | Glossary On
Versions: 1 2 3 4 5 6 7 8 9 10 11 12 13 14 15 16 17 18 19 20 21
000
FTUS43 KICT 041500 AAB
TAFCNU
TAF AMD
KCNU 041500Z 0415/0512 02015G22KT 4SM -SN SCT015 OVC030
      TEMPO 0415/0419 2SM -SN SCT009 OVC015
     FM042000 02015G22KT P6SM SCT035 BKN070
     FM042300 01008KT P6SM SCT035 BKN070
     FM050300 02007KT P6SM SCT120=

USA.gov is the U.S. government's official web portal to all federal, state and local government web resources and services.